Time;durP1;ratioP1;P1;durP2;ratioP2;P2;SDS_P1;SDS_P2;PMS_P1;PMS_P2;Temp;Humidity;BMP_temperature;BMP_pressure;BME280_temperature;BME280_humidity;BME280_pressure;Samples;Min_cycle;Max_cycle;Signal;HPM_P1;HPM_P2
2024/01/25 00:01:50;;;;;;;5.82;2.85;;;;;;;17.42;52.75;102503.22;10408784;28;20384;-55
2024/01/25 00:06:50;;;;;;;8.20;3.50;;;;;;;17.44;53.04;102509.16;10409921;28;20025;-55
2024/01/25 00:11:51;;;;;;;8.00;2.50;;;;;;;17.45;53.10;102516.16;10420016;28;20288;-55
2024/01/25 00:16:51;;;;;;;5.47;2.40;;;;;;;17.46;52.57;102517.78;10409051;28;20855;-54
2024/01/25 00:21:52;;;;;;;7.35;2.40;;;;;;;17.45;51.94;102518.81;10408561;28;20391;-55
2024/01/25 00:26:52;;;;;;;6.67;2.17;;;;;;;17.46;52.36;102515.09;10408642;28;20030;-55
2024/01/25 00:31:52;;;;;;;7.07;2.63;;;;;;;17.45;52.15;102526.06;10408533;28;20279;-55
2024/01/25 00:36:54;;;;;;;7.83;3.40;;;;;;;17.46;52.42;102523.13;10408836;28;20283;-55
2024/01/25 00:41:58;;;;;;;4.50;1.92;;;;;;;17.46;51.95;102530.38;10407964;28;20280;-54
2024/01/25 00:46:59;;;;;;;4.85;2.83;;;;;;;17.45;51.96;102526.88;10413697;28;20029;-54
2024/01/25 00:52:00;;;;;;;5.82;2.17;;;;;;;17.45;53.13;102540.28;10416227;28;20432;-55
2024/01/25 00:57:00;;;;;;;5.32;2.40;;;;;;;17.45;52.82;102528.75;10416451;28;20338;-55
2024/01/25 01:02:01;;;;;;;7.15;2.20;;;;;;;17.45;52.67;102553.69;10416096;28;20029;-55
2024/01/25 01:07:02;;;;;;;7.45;2.70;;;;;;;17.44;52.25;102545.91;10416892;28;20021;-55
2024/01/25 01:12:03;;;;;;;6.32;2.22;;;;;;;17.45;52.53;102551.00;10425567;28;20132;-54
2024/01/25 01:17:03;;;;;;;4.85;1.98;;;;;;;17.45;52.40;102553.69;10415691;28;20025;-54
2024/01/25 01:22:03;;;;;;;7.60;3.40;;;;;;;17.43;51.69;102555.00;10414939;28;20025;-54
2024/01/25 01:27:04;;;;;;;7.90;2.35;;;;;;;17.41;53.09;102562.47;10415075;28;20276;-55
2024/01/25 01:32:04;;;;;;;7.20;2.45;;;;;;;17.45;52.45;102563.59;10413869;28;20022;-54
2024/01/25 01:37:05;;;;;;;7.05;3.33;;;;;;;17.44;52.01;102564.66;10415151;28;20026;-54
2024/01/25 01:42:05;;;;;;;4.33;1.90;;;;;;;17.44;51.24;102568.16;10414930;28;20025;-54
2024/01/25 01:47:05;;;;;;;5.25;2.03;;;;;;;17.44;52.70;102589.63;10414347;28;20612;-54
2024/01/25 01:52:06;;;;;;;5.90;2.33;;;;;;;17.43;51.80;102579.94;10414108;28;20057;-54
2024/01/25 01:57:07;;;;;;;5.15;2.38;;;;;;;17.43;52.59;102588.00;10412061;28;20025;-55
2024/01/25 02:02:07;;;;;;;6.55;2.20;;;;;;;17.44;51.54;102600.34;10412464;28;20021;-54
2024/01/25 02:07:08;;;;;;;5.17;2.23;;;;;;;17.43;51.79;102614.00;10414055;28;20527;-54
2024/01/25 02:12:08;;;;;;;3.97;2.53;;;;;;;17.41;52.54;102622.28;10440546;28;20365;-54
2024/01/25 02:17:08;;;;;;;6.18;2.20;;;;;;;17.41;53.04;102624.97;10413524;28;20048;-54
2024/01/25 02:22:09;;;;;;;8.15;2.60;;;;;;;17.41;52.39;102611.56;10412859;28;20037;-54
2024/01/25 02:27:09;;;;;;;5.38;1.60;;;;;;;17.43;51.75;102624.72;10413352;28;20021;-54
2024/01/25 02:32:09;;;;;;;5.10;2.13;;;;;;;17.44;52.29;102624.47;10438457;28;20021;-54
2024/01/25 02:37:12;;;;;;;4.70;1.93;;;;;;;17.45;52.25;102627.97;10412782;28;20824;-55
2024/01/25 02:42:13;;;;;;;4.22;1.73;;;;;;;17.46;51.74;102640.31;10412009;28;20760;-55
2024/01/25 02:47:15;;;;;;;7.00;2.15;;;;;;;17.46;52.22;102635.78;10412485;28;20022;-54
2024/01/25 02:52:15;;;;;;;4.07;2.10;;;;;;;17.51;52.53;102633.16;10411686;28;20021;-53
2024/01/25 02:57:16;;;;;;;5.07;2.03;;;;;;;17.58;50.43;102630.34;10411953;28;20029;-54
2024/01/25 03:02:19;;;;;;;5.93;2.30;;;;;;;17.64;50.88;102634.75;10411267;28;20291;-54
2024/01/25 03:07:19;;;;;;;6.47;2.45;;;;;;;17.63;51.91;102634.97;10415661;28;20013;-54
2024/01/25 03:12:19;;;;;;;3.90;1.77;;;;;;;17.58;51.11;102640.25;10418732;28;20049;-54
2024/01/25 03:17:20;;;;;;;5.18;2.50;;;;;;;17.58;50.86;102641.06;10410724;28;20111;-54
2024/01/25 03:22:20;;;;;;;5.50;1.77;;;;;;;17.56;51.45;102640.50;10410920;28;20021;-54
2024/01/25 03:27:20;;;;;;;4.87;1.77;;;;;;;17.59;52.13;102636.53;10410503;28;20627;-53
2024/01/25 03:32:21;;;;;;;5.80;2.40;;;;;;;17.54;50.51;102629.22;10435612;28;20265;-54
2024/01/25 03:37:22;;;;;;;4.10;2.20;;;;;;;17.56;50.26;102632.47;10410070;28;20291;-54
2024/01/25 03:42:22;;;;;;;4.83;1.93;;;;;;;17.54;51.45;102640.75;10410334;28;20022;-54
2024/01/25 03:47:23;;;;;;;5.97;2.47;;;;;;;17.53;51.78;102638.31;10409785;28;20276;-54
2024/01/25 03:52:23;;;;;;;8.52;3.13;;;;;;;17.52;50.79;102626.78;10408712;28;20272;-55
2024/01/25 03:57:24;;;;;;;5.65;2.05;;;;;;;17.54;51.63;102623.84;10409281;28;20095;-55
2024/01/25 04:02:24;;;;;;;6.37;1.97;;;;;;;17.51;51.04;102633.16;10409491;28;20022;-55
2024/01/25 04:07:24;;;;;;;4.60;1.60;;;;;;;17.52;50.74;102640.19;10414295;28;20267;-55
2024/01/25 04:12:25;;;;;;;5.77;2.00;;;;;;;17.53;50.22;102636.44;10416364;28;20918;-55
2024/01/25 04:17:25;;;;;;;5.57;1.98;;;;;;;17.50;51.63;102631.53;10408945;28;20329;-55
2024/01/25 04:22:25;;;;;;;5.75;2.00;;;;;;;17.51;50.80;102632.34;10413258;28;20028;-55
2024/01/25 04:27:26;;;;;;;4.20;2.10;;;;;;;17.52;50.78;102642.88;10419648;28;20048;-54
2024/01/25 04:32:26;;;;;;;4.75;2.22;;;;;;;17.58;51.45;102640.25;10424510;28;20275;-54
2024/01/25 04:37:26;;;;;;;9.83;3.30;;;;;;;17.57;52.33;102642.13;10423235;28;20021;-54
2024/01/25 04:42:27;;;;;;;8.18;2.08;;;;;;;17.61;51.77;102640.59;10425607;28;20291;-54
2024/01/25 04:47:28;;;;;;;7.45;2.22;;;;;;;17.61;50.87;102637.09;10421938;28;20116;-54
2024/01/25 04:52:28;;;;;;;5.73;1.80;;;;;;;17.58;52.50;102643.75;10423280;28;20404;-54
2024/01/25 04:57:28;;;;;;;5.27;1.77;;;;;;;17.56;52.05;102653.91;10420542;28;20743;-55
2024/01/25 05:02:28;;;;;;;5.70;2.30;;;;;;;17.54;51.99;102645.31;10420653;28;20386;-55
2024/01/25 05:07:29;;;;;;;4.53;1.60;;;;;;;17.52;51.82;102655.44;10446970;28;20291;-55
2024/01/25 05:12:29;;;;;;;4.33;1.93;;;;;;;17.56;51.89;102651.25;10426085;28;20692;-55
2024/01/25 05:17:29;;;;;;;4.97;1.90;;;;;;;17.54;51.85;102645.31;10419444;28;20288;-55
2024/01/25 05:22:30;;;;;;;5.17;1.73;;;;;;;17.51;52.31;102638.53;10404880;28;20492;-53
2024/01/25 05:27:30;;;;;;;7.05;1.98;;;;;;;17.52;51.13;102642.03;10409370;28;20084;-53
2024/01/25 05:32:30;;;;;;;6.30;2.87;;;;;;;17.51;50.46;102637.72;10430560;28;20017;-55
2024/01/25 05:37:31;;;;;;;3.75;1.77;;;;;;;17.49;51.95;102662.09;10414663;28;20272;-54
2024/01/25 05:42:32;;;;;;;6.27;1.97;;;;;;;17.47;51.14;102674.94;10414862;28;20477;-54
2024/01/25 05:47:32;;;;;;;6.18;1.98;;;;;;;17.51;50.96;102670.72;10414510;28;20308;-54
2024/01/25 05:52:33;;;;;;;4.30;1.75;;;;;;;17.48;51.36;102671.19;10413385;28;20021;-53
2024/01/25 05:57:35;;;;;;;4.95;1.70;;;;;;;17.47;50.27;102682.19;10413955;28;20025;-54
2024/01/25 06:02:35;;;;;;;8.50;2.40;;;;;;;17.60;50.59;102681.06;10414213;28;20030;-57
2024/01/25 06:07:36;;;;;;;6.83;1.90;;;;;;;17.62;50.21;102685.13;10420595;28;20024;-54
2024/01/25 06:12:36;;;;;;;7.63;1.83;;;;;;;17.65;50.88;102683.84;10419254;28;20303;-55
2024/01/25 06:17:36;;;;;;;9.30;2.83;;;;;;;17.64;51.54;102671.47;10413306;28;20310;-56
2024/01/25 06:22:37;;;;;;;10.93;3.43;;;;;;;17.65;53.91;102691.91;10413374;28;20295;-56
2024/01/25 06:27:37;;;;;;;10.87;3.13;;;;;;;17.74;51.67;102698.50;10413027;28;20099;-55
2024/01/25 06:32:37;;;;;;;9.15;2.90;;;;;;;17.69;51.61;102693.88;10437947;28;20330;-55
2024/01/25 06:37:38;;;;;;;12.45;2.42;;;;;;;17.60;51.88;102699.84;10411232;28;20044;-57
2024/01/25 06:42:38;;;;;;;10.33;2.47;;;;;;;17.60;51.43;102705.22;10412287;28;20108;-56
2024/01/25 06:47:38;;;;;;;7.63;2.13;;;;;;;17.50;52.54;102709.31;10412047;28;20299;-57
2024/01/25 06:52:39;;;;;;;17.23;4.37;;;;;;;17.58;50.76;102699.28;10412251;28;20303;-56
2024/01/25 06:57:39;;;;;;;13.07;3.50;;;;;;;17.57;51.84;102703.00;10410213;28;20284;-56
2024/01/25 07:02:40;;;;;;;7.60;2.75;;;;;;;17.48;50.79;102705.25;10411992;28;20330;-56
2024/01/25 07:07:40;;;;;;;10.52;2.70;;;;;;;17.42;52.14;102700.88;10424027;28;20025;-55
2024/01/25 07:12:40;;;;;;;9.57;2.50;;;;;;;17.41;51.71;102694.69;10441685;28;20049;-55
2024/01/25 07:17:41;;;;;;;12.93;4.03;;;;;;;17.43;52.65;102689.91;10451929;28;20340;-55
2024/01/25 07:22:41;;;;;;;10.80;3.35;;;;;;;17.49;50.87;102693.47;10451972;28;20033;-56
2024/01/25 07:27:45;;;;;;;11.98;2.60;;;;;;;17.47;51.09;102688.34;10451711;28;20476;-55
2024/01/25 07:32:46;;;;;;;9.23;3.30;;;;;;;17.46;51.76;102691.28;10443322;28;20067;-54
2024/01/25 07:37:46;;;;;;;6.93;2.97;;;;;;;17.47;50.51;102703.63;10409316;28;20062;-56
2024/01/25 07:42:47;;;;;;;8.83;2.90;;;;;;;17.46;51.29;102723.47;10409365;28;20056;-56
2024/01/25 07:47:47;;;;;;;7.30;2.33;;;;;;;17.45;51.69;102711.91;10408396;28;20776;-56
2024/01/25 07:52:49;;;;;;;11.15;2.70;;;;;;;17.42;51.13;102716.94;10409097;28;20413;-56
2024/01/25 07:57:50;;;;;;;11.82;3.42;;;;;;;17.40;50.19;102716.34;10408127;28;20037;-55
2024/01/25 08:02:50;;;;;;;10.03;3.33;;;;;;;17.43;50.63;102708.66;10408901;28;20021;-56
2024/01/25 08:07:50;;;;;;;10.68;3.30;;;;;;;17.41;50.81;102709.97;10416604;28;20750;-54
2024/01/25 08:12:51;;;;;;;8.02;2.58;;;;;;;17.40;50.94;102706.44;10411247;28;20103;-56
2024/01/25 08:17:51;;;;;;;6.57;2.35;;;;;;;17.43;50.56;102705.97;10407807;28;20030;-56
2024/01/25 08:22:51;;;;;;;5.77;2.47;;;;;;;17.43;49.92;102708.66;10407549;28;20022;-55
2024/01/25 08:27:52;;;;;;;10.00;2.87;;;;;;;17.42;49.94;102716.94;10407780;28;20271;-55
2024/01/25 08:32:52;;;;;;;8.07;2.92;;;;;;;17.41;50.01;102723.38;10407669;28;20311;-55
2024/01/25 08:37:52;;;;;;;7.43;2.70;;;;;;;17.40;50.48;102727.06;10407172;28;20022;-55
2024/01/25 08:42:53;;;;;;;6.73;2.97;;;;;;;17.42;50.11;102728.50;10407840;28;20345;-56
2024/01/25 08:47:53;;;;;;;7.37;3.07;;;;;;;17.45;49.96;102732.56;10407227;28;20728;-58
2024/01/25 08:52:54;;;;;;;10.77;3.22;;;;;;;17.40;49.86;102741.31;10408116;28;20280;-56
2024/01/25 08:57:54;;;;;;;6.00;2.63;;;;;;;17.38;50.05;102742.59;10407189;28;20029;-56
2024/01/25 09:02:54;;;;;;;7.53;2.73;;;;;;;17.33;50.06;102743.31;10407455;28;20476;-55
2024/01/25 09:07:55;;;;;;;6.17;3.40;;;;;;;17.33;49.64;102755.91;10434229;28;20275;-55
2024/01/25 09:12:55;;;;;;;8.48;3.20;;;;;;;17.36;49.87;102745.53;10417405;28;20370;-56
2024/01/25 09:17:55;;;;;;;7.25;3.00;;;;;;;17.39;50.27;102742.34;10414122;28;20022;-58
2024/01/25 09:22:56;;;;;;;9.83;3.40;;;;;;;17.35;50.13;102748.44;10414869;28;20040;-55
2024/01/25 09:27:57;;;;;;;7.50;3.50;;;;;;;17.30;51.21;102751.03;10414136;28;20272;-55
2024/01/25 09:32:57;;;;;;;6.40;2.63;;;;;;;17.26;50.36;102758.72;10439465;28;20272;-55
2024/01/25 09:37:57;;;;;;;6.97;3.28;;;;;;;17.27;51.67;102767.56;10413606;28;20090;-55
2024/01/25 09:42:58;;;;;;;7.30;3.42;;;;;;;17.24;51.68;102753.59;10414038;28;20029;-56
2024/01/25 09:47:58;;;;;;;10.10;3.72;;;;;;;17.28;51.29;102740.53;10411845;28;20037;-56
2024/01/25 09:52:59;;;;;;;5.70;2.53;;;;;;;17.29;50.86;102738.69;10413687;28;20025;-55
2024/01/25 09:58:00;;;;;;;6.10;2.58;;;;;;;17.28;51.02;102745.06;10413296;28;20026;-57
2024/01/25 10:03:00;;;;;;;5.65;3.00;;;;;;;17.34;49.86;102749.50;10412967;28;20021;-55
2024/01/25 10:08:01;;;;;;;8.43;3.27;;;;;;;17.36;50.61;102744.72;10422626;28;20032;-56
2024/01/25 10:13:01;;;;;;;7.53;2.90;;;;;;;17.32;50.62;102736.34;10414525;28;20303;-57
2024/01/25 10:18:02;;;;;;;5.88;2.88;;;;;;;17.27;51.71;102708.59;10410414;28;20469;-56
2024/01/25 10:23:02;;;;;;;10.02;3.28;;;;;;;17.24;51.17;102710.69;10411987;28;20036;-57
2024/01/25 10:28:04;;;;;;;6.88;3.60;;;;;;;17.20;50.22;102722.97;10412035;28;20032;-56
2024/01/25 10:33:04;;;;;;;4.93;2.42;;;;;;;17.15;50.89;102722.03;10436106;28;20473;-56
2024/01/25 10:38:05;;;;;;;7.35;2.80;;;;;;;17.12;50.48;102703.75;10412294;28;20023;-56
2024/01/25 10:43:05;;;;;;;7.25;3.50;;;;;;;17.13;51.16;102721.44;10410742;28;20021;-57
2024/01/25 10:48:07;;;;;;;8.88;3.38;;;;;;;17.11;52.15;102704.78;10411667;28;20502;-55
2024/01/25 10:53:07;;;;;;;11.48;3.08;;;;;;;17.09;51.28;102698.88;10410782;28;20021;-56
2024/01/25 10:58:11;;;;;;;6.57;3.05;;;;;;;17.08;51.46;102706.09;10409492;28;20033;-57
2024/01/25 11:03:11;;;;;;;10.65;3.40;;;;;;;17.10;51.10;102703.16;10408956;28;20485;-56
2024/01/25 11:08:19;;;;;;;6.37;2.73;;;;;;;17.09;51.81;102694.31;10422596;28;20020;-57
2024/01/25 11:13:29;;;;;;;5.55;2.65;;;;;;;17.10;51.35;102682.53;10450945;28;21018;-57
2024/01/25 11:18:30;;;;;;;5.72;3.03;;;;;;;17.06;51.30;102675.22;10451486;28;20174;-56
2024/01/25 11:23:31;;;;;;;9.80;3.20;;;;;;;17.07;51.96;102661.56;10450307;28;20103;-57
2024/01/25 11:28:32;;;;;;;6.55;3.15;;;;;;;17.08;51.45;102651.66;10449928;28;20682;-56
2024/01/25 11:33:32;;;;;;;8.30;3.90;;;;;;;17.09;51.74;102651.44;10463140;28;20029;-57
2024/01/25 11:38:33;;;;;;;8.88;3.20;;;;;;;17.06;51.33;102669.88;10449298;28;20025;-56
2024/01/25 11:43:33;;;;;;;6.77;2.77;;;;;;;17.09;51.88;102654.13;10449847;28;20032;-56
2024/01/25 11:48:33;;;;;;;7.38;3.45;;;;;;;17.11;51.97;102627.88;10450179;28;20776;-56
2024/01/25 11:53:34;;;;;;;7.27;3.70;;;;;;;17.09;51.67;102630.00;10449659;28;20021;-57
2024/01/25 11:58:34;;;;;;;7.40;2.77;;;;;;;17.09;51.00;102639.91;10448180;28;20345;-55
2024/01/25 12:03:38;;;;;;;9.77;3.40;;;;;;;17.10;51.04;102642.34;10448036;28;20836;-56
2024/01/25 12:08:38;;;;;;;7.40;2.65;;;;;;;17.12;51.94;102613.41;10446428;28;20029;-55
2024/01/25 12:13:40;;;;;;;6.25;2.33;;;;;;;17.16;51.46;102593.13;10407491;28;20045;-57
2024/01/25 12:18:42;;;;;;;6.53;2.40;;;;;;;17.17;51.34;102600.13;10408046;28;20031;-56
2024/01/25 12:23:43;;;;;;;8.45;2.83;;;;;;;17.21;50.39;102600.47;10406540;28;20100;-57
2024/01/25 12:28:44;;;;;;;6.68;2.78;;;;;;;17.13;52.02;102598.97;10408006;28;20424;-56
2024/01/25 12:33:44;;;;;;;7.60;3.63;;;;;;;17.15;51.90;102580.78;10433424;28;20018;-57
2024/01/25 12:38:44;;;;;;;6.60;2.80;;;;;;;17.17;50.99;102570.66;10407631;28;20765;-56
2024/01/25 12:43:45;;;;;;;6.00;2.60;;;;;;;17.09;51.35;102567.53;10415255;28;20349;-56
2024/01/25 12:48:45;;;;;;;9.63;3.47;;;;;;;17.14;50.85;102572.97;10416059;28;20295;-55
2024/01/25 12:53:45;;;;;;;6.43;2.47;;;;;;;17.09;50.78;102565.66;10415326;28;20021;-56
2024/01/25 12:58:46;;;;;;;6.27;2.50;;;;;;;17.08;52.02;102566.72;10414705;28;20280;-57
2024/01/25 13:03:46;;;;;;;7.00;2.80;;;;;;;17.09;52.22;102565.66;10414760;28;20295;-56
2024/01/25 13:08:47;;;;;;;7.85;3.45;;;;;;;17.05;51.92;102548.44;10427520;28;20283;-56
2024/01/25 13:13:47;;;;;;;7.22;3.10;;;;;;;17.07;51.10;102538.28;10414939;28;20044;-56
2024/01/25 13:18:47;;;;;;;8.10;3.25;;;;;;;17.09;51.84;102535.38;10415011;28;20033;-56
2024/01/25 13:23:48;;;;;;;7.90;3.23;;;;;;;17.13;51.28;102533.81;10414298;28;20018;-57
2024/01/25 13:28:48;;;;;;;8.10;3.50;;;;;;;17.15;51.32;102524.47;10414358;28;20287;-55
2024/01/25 13:33:49;;;;;;;9.40;3.85;;;;;;;17.17;50.63;102518.91;10439039;28;20294;-57
2024/01/25 13:38:49;;;;;;;7.00;3.05;;;;;;;17.16;51.51;102507.34;10413854;28;20029;-56
2024/01/25 13:43:49;;;;;;;9.65;3.33;;;;;;;17.20;50.50;102505.00;10413371;28;20083;-56
2024/01/25 13:48:50;;;;;;;7.43;3.20;;;;;;;17.17;50.51;102502.81;10413351;28;20104;-55
2024/01/25 13:53:50;;;;;;;6.70;2.57;;;;;;;17.22;50.92;102501.03;10412037;28;20300;-56
2024/01/25 13:58:51;;;;;;;6.95;3.28;;;;;;;17.22;50.41;102492.97;10413161;28;20279;-56
2024/01/25 14:03:51;;;;;;;8.20;2.90;;;;;;;17.24;50.06;102485.50;10412287;28;20021;-55
2024/01/25 14:08:52;;;;;;;7.90;3.60;;;;;;;17.21;51.07;102467.22;10426137;28;20033;-57
2024/01/25 14:13:52;;;;;;;4.70;2.77;;;;;;;17.25;51.28;102471.03;10412175;28;20767;-57
2024/01/25 14:18:52;;;;;;;7.45;3.17;;;;;;;17.23;50.53;102475.84;10412482;28;20284;-55
2024/01/25 14:23:53;;;;;;;6.60;4.03;;;;;;;17.21;50.48;102464.56;10410885;28;20044;-55
2024/01/25 14:28:53;;;;;;;5.47;3.40;;;;;;;17.21;50.94;102453.03;10412510;28;20029;-55
2024/01/25 14:33:53;;;;;;;8.85;3.30;;;;;;;17.20;50.78;102452.22;10437602;28;20280;-56
2024/01/25 14:38:54;;;;;;;9.07;3.73;;;;;;;17.21;51.31;102443.09;10411947;28;20040;-57
2024/01/25 14:43:54;;;;;;;7.67;3.83;;;;;;;17.25;51.34;102451.47;10410988;28;20315;-55
2024/01/25 14:48:57;;;;;;;8.13;3.67;;;;;;;17.24;49.96;102442.59;10411763;28;20299;-56
2024/01/25 14:53:57;;;;;;;8.25;3.40;;;;;;;17.25;50.60;102433.50;10410787;28;20091;-56
2024/01/25 14:58:57;;;;;;;6.33;3.33;;;;;;;17.28;50.39;102434.88;10410932;28;20119;-57
2024/01/25 15:03:58;;;;;;;6.30;3.20;;;;;;;17.31;49.55;102433.59;10409862;28;20799;-57
2024/01/25 15:08:58;;;;;;;9.48;3.83;;;;;;;17.25;50.30;102430.81;10422802;28;20377;-57
2024/01/25 15:13:59;;;;;;;8.90;4.30;;;;;;;17.25;49.93;102432.69;10409936;28;20045;-57
2024/01/25 15:18:59;;;;;;;11.52;5.32;;;;;;;17.25;51.11;102421.97;10410332;28;20272;-55
2024/01/25 15:24:00;;;;;;;6.22;3.97;;;;;;;17.27;49.94;102417.19;10409269;28;20237;-57
2024/01/25 15:29:00;;;;;;;7.77;3.40;;;;;;;17.30;50.64;102410.53;10409752;28;20101;-54
2024/01/25 15:34:00;;;;;;;7.30;3.63;;;;;;;17.29;50.59;102407.03;10435285;28;21010;-54
2024/01/25 15:39:03;;;;;;;9.38;5.32;;;;;;;17.27;50.02;102387.69;10409406;28;20359;-57
2024/01/25 15:44:03;;;;;;;10.77;5.30;;;;;;;17.25;51.05;102371.84;10408748;28;20061;-56
2024/01/25 15:49:04;;;;;;;10.63;5.40;;;;;;;17.28;49.85;102383.13;10409151;28;20132;-56
2024/01/25 15:54:04;;;;;;;7.53;4.07;;;;;;;17.28;50.10;102375.09;10408493;28;20025;-56
2024/01/25 15:59:05;;;;;;;8.95;4.82;;;;;;;17.30;49.30;102370.31;10407850;28;20086;-56
2024/01/25 16:04:05;;;;;;;10.15;5.15;;;;;;;17.20;51.20;102368.31;10407654;28;20064;-58
2024/01/25 16:09:06;;;;;;;7.37;4.17;;;;;;;17.26;50.18;102351.22;10421152;28;20032;-57
2024/01/25 16:14:06;;;;;;;13.35;4.97;;;;;;;17.33;50.39;102353.72;10423371;28;20662;-56
2024/01/25 16:19:06;;;;;;;12.13;4.65;;;;;;;17.27;50.45;102352.84;10414621;28;20029;-56
2024/01/25 16:24:07;;;;;;;7.93;3.97;;;;;;;17.34;50.26;102358.84;10411309;28;20368;-56
2024/01/25 16:29:07;;;;;;;8.68;4.97;;;;;;;17.37;50.84;102354.84;10408903;28;20033;-56
2024/01/25 16:34:07;;;;;;;7.77;4.33;;;;;;;17.37;50.15;102354.84;10433761;28;20021;-55
2024/01/25 16:39:08;;;;;;;9.37;4.97;;;;;;;17.29;51.02;102352.63;10439710;28;20417;-56
2024/01/25 16:44:08;;;;;;;11.63;4.70;;;;;;;17.46;50.66;102340.78;10408857;28;20342;-55
2024/01/25 16:49:08;;;;;;;11.93;5.07;;;;;;;17.59;50.40;102331.56;10410416;28;20291;-55
2024/01/25 16:54:09;;;;;;;9.00;4.60;;;;;;;17.71;50.75;102331.47;10418127;28;20282;-55
2024/01/25 16:59:09;;;;;;;15.97;5.90;;;;;;;17.83;52.45;102340.19;10427370;28;20287;-54
2024/01/25 17:04:12;;;;;;;10.90;5.17;;;;;;;17.99;53.42;102333.91;10413745;28;20280;-56
2024/01/25 17:09:15;;;;;;;13.10;6.18;;;;;;;18.10;52.61;102329.47;10420518;28;20826;-56
2024/01/25 17:14:15;;;;;;;15.15;5.45;;;;;;;18.05;52.41;102321.38;10407292;28;20079;-56
2024/01/25 17:19:16;;;;;;;15.37;5.93;;;;;;;17.91;54.88;102325.53;10408216;28;20427;-55
2024/01/25 17:24:16;;;;;;;15.93;6.47;;;;;;;17.77;53.76;102325.09;10410228;28;20287;-55
2024/01/25 17:29:16;;;;;;;17.17;6.00;;;;;;;17.74;54.25;102318.34;10414246;28;20037;-56
2024/01/25 17:34:17;;;;;;;17.60;5.87;;;;;;;17.69;53.26;102314.81;10440282;28;20280;-56
2024/01/25 17:39:17;;;;;;;16.97;6.30;;;;;;;17.57;54.27;102322.13;10415130;28;20283;-56
2024/01/25 17:44:18;;;;;;;15.50;5.10;;;;;;;17.54;54.12;102318.91;10414891;28;20284;-55
2024/01/25 17:49:18;;;;;;;11.13;5.30;;;;;;;17.45;54.16;102312.34;10414880;28;20319;-54
2024/01/25 17:54:18;;;;;;;15.43;5.93;;;;;;;17.39;54.26;102316.00;10414278;28;20025;-55
2024/01/25 17:59:20;;;;;;;13.20;5.27;;;;;;;17.35;54.77;102309.53;10454142;28;20286;-54
2024/01/25 18:04:21;;;;;;;12.57;4.53;;;;;;;17.27;54.95;102315.31;10455137;28;20282;-55
2024/01/25 18:09:23;;;;;;;13.23;5.18;;;;;;;17.23;54.11;102300.78;10450194;28;20026;-55
2024/01/25 18:14:23;;;;;;;11.68;4.78;;;;;;;17.20;54.46;102301.28;10413446;28;20060;-55
2024/01/25 18:19:26;;;;;;;14.47;5.53;;;;;;;17.16;55.07;102290.22;10413499;28;20030;-56
2024/01/25 18:24:26;;;;;;;9.80;5.38;;;;;;;17.16;53.67;102284.88;10413431;28;20116;-55
2024/01/25 18:29:27;;;;;;;10.97;5.53;;;;;;;17.17;53.63;102286.50;10413333;28;20120;-56
2024/01/25 18:34:28;;;;;;;18.92;5.65;;;;;;;17.18;54.00;102290.00;10438783;28;20288;-56
2024/01/25 18:39:28;;;;;;;11.37;4.27;;;;;;;17.20;53.04;102279.84;10412079;28;20389;-55
2024/01/25 18:44:29;;;;;;;13.43;5.07;;;;;;;17.21;53.07;102276.91;10414702;28;20264;-56
2024/01/25 18:49:29;;;;;;;12.30;5.90;;;;;;;17.23;53.99;102287.38;10420436;28;20052;-55
2024/01/25 18:54:29;;;;;;;9.07;5.07;;;;;;;17.24;53.23;102278.28;10414866;28;20276;-56
2024/01/25 18:59:30;;;;;;;10.45;5.28;;;;;;;17.26;53.67;102270.78;10411660;28;20690;-54
2024/01/25 19:04:31;;;;;;;10.93;4.97;;;;;;;17.27;52.99;102267.06;10411957;28;20041;-55
2024/01/25 19:09:32;;;;;;;8.82;4.70;;;;;;;17.29;52.38;102251.56;10417537;28;20052;-56
2024/01/25 19:14:32;;;;;;;8.20;4.50;;;;;;;17.28;53.88;102254.47;10427892;28;20055;-56
2024/01/25 19:19:32;;;;;;;8.17;5.50;;;;;;;17.29;52.20;102251.56;10426708;28;20368;-55
2024/01/25 19:24:33;;;;;;;10.43;5.23;;;;;;;17.30;52.54;102244.31;10426031;28;20025;-55
2024/01/25 19:29:33;;;;;;;8.35;4.50;;;;;;;17.32;52.09;102226.09;10417044;28;20774;-56
2024/01/25 19:34:33;;;;;;;9.70;4.90;;;;;;;17.31;53.00;102219.13;10429720;28;20108;-56
2024/01/25 19:39:34;;;;;;;7.88;5.18;;;;;;;17.31;52.39;102219.13;10425697;28;20292;-56
2024/01/25 19:44:34;;;;;;;6.93;4.47;;;;;;;17.32;51.96;102215.38;10430102;28;20465;-57
2024/01/25 19:49:35;;;;;;;7.63;4.75;;;;;;;17.32;53.49;102215.38;10424732;28;20279;-56
2024/01/25 19:54:37;;;;;;;6.87;4.10;;;;;;;17.35;54.05;102213.00;10420759;28;20500;-56
2024/01/25 19:59:38;;;;;;;5.97;4.32;;;;;;;17.42;53.92;102210.16;10426954;28;20876;-57
2024/01/25 20:04:39;;;;;;;8.90;4.30;;;;;;;17.36;54.39;102203.09;10422907;28;20021;-57
2024/01/25 20:09:40;;;;;;;8.05;4.68;;;;;;;17.33;55.08;102204.41;10426316;28;20083;-56
2024/01/25 20:14:41;;;;;;;7.60;4.28;;;;;;;17.30;54.37;102199.56;10412322;28;20038;-57
2024/01/25 20:19:41;;;;;;;8.02;4.68;;;;;;;17.29;55.64;102194.44;10408798;28;20028;-57
2024/01/25 20:24:41;;;;;;;6.87;3.90;;;;;;;17.26;55.40;102195.72;10411178;28;20033;-56
2024/01/25 20:29:42;;;;;;;9.00;4.43;;;;;;;17.24;55.11;102182.59;10410615;28;20272;-56
2024/01/25 20:34:45;;;;;;;8.65;4.65;;;;;;;17.25;54.71;102181.53;10421050;28;20280;-57
2024/01/25 20:39:45;;;;;;;8.90;5.10;;;;;;;17.23;54.80;102180.97;10424746;28;20488;-57
2024/01/25 20:44:45;;;;;;;5.80;3.67;;;;;;;17.28;55.75;102184.75;10427935;28;20029;-57
2024/01/25 20:49:46;;;;;;;5.97;4.10;;;;;;;17.29;54.59;102181.84;10414823;28;20268;-56
2024/01/25 20:54:46;;;;;;;6.83;3.30;;;;;;;17.31;54.22;102177.03;10408534;28;20322;-57
2024/01/25 20:59:46;;;;;;;6.87;5.07;;;;;;;17.30;54.51;102172.75;10407926;28;20845;-57
2024/01/25 21:04:47;;;;;;;5.53;3.53;;;;;;;17.32;54.32;102159.91;10415930;28;20280;-57
2024/01/25 21:09:48;;;;;;;6.10;3.60;;;;;;;17.29;55.39;102162.28;10428252;28;20307;-57
2024/01/25 21:14:49;;;;;;;6.15;3.30;;;;;;;17.30;55.20;102150.50;10415924;28;20048;-58
2024/01/25 21:19:49;;;;;;;6.50;3.55;;;;;;;17.31;55.19;102149.44;10414399;28;20377;-57
2024/01/25 21:24:52;;;;;;;6.95;3.90;;;;;;;17.30;54.13;102150.50;10415852;28;20082;-57
2024/01/25 21:29:55;;;;;;;4.90;3.22;;;;;;;17.32;55.02;102145.69;10420426;28;20116;-56
2024/01/25 21:34:55;;;;;;;4.63;3.00;;;;;;;17.33;55.14;102139.25;10433676;28;20025;-57
2024/01/25 21:39:56;;;;;;;6.27;3.33;;;;;;;17.37;54.25;102143.03;10414996;28;20033;-57
2024/01/25 21:44:56;;;;;;;5.35;3.28;;;;;;;17.33;55.55;102126.66;10413631;28;20303;-57
2024/01/25 21:49:56;;;;;;;5.17;3.00;;;;;;;17.34;55.07;102132.84;10414814;28;20025;-56
2024/01/25 21:54:57;;;;;;;4.47;3.35;;;;;;;17.36;55.17;102131.50;10414930;28;20729;-56
2024/01/25 21:59:57;;;;;;;4.53;3.40;;;;;;;17.34;54.97;102128.28;10414109;28;20033;-57
2024/01/25 22:04:57;;;;;;;5.50;3.78;;;;;;;17.36;55.15;102125.34;10414282;28;20751;-56
2024/01/25 22:09:58;;;;;;;5.07;3.40;;;;;;;17.34;55.62;102128.28;10425950;28;20048;-57
2024/01/25 22:14:58;;;;;;;6.15;3.63;;;;;;;17.34;54.24;102125.59;10412906;28;20064;-58
2024/01/25 22:20:00;;;;;;;4.53;3.10;;;;;;;17.36;55.52;102122.66;10413118;28;20052;-57
2024/01/25 22:25:00;;;;;;;4.82;3.28;;;;;;;17.35;54.01;102110.31;10413897;28;20357;-57
2024/01/25 22:30:01;;;;;;;4.82;3.15;;;;;;;17.35;54.18;102115.69;10420296;28;20472;-57
2024/01/25 22:35:01;;;;;;;6.70;3.60;;;;;;;17.37;54.77;102126.94;10432337;28;20025;-56
2024/01/25 22:40:03;;;;;;;4.75;3.00;;;;;;;17.37;54.91;102132.31;10412642;28;20032;-57
2024/01/25 22:45:03;;;;;;;6.57;3.58;;;;;;;17.35;53.66;102124.53;10412732;28;20021;-56
2024/01/25 22:50:05;;;;;;;4.70;3.03;;;;;;;17.35;54.86;102123.72;10411989;28;20025;-57
2024/01/25 22:55:06;;;;;;;4.72;3.22;;;;;;;17.35;55.08;102127.22;10412517;28;20350;-57
2024/01/25 23:00:20;;;;;;;4.82;4.03;;;;;;;17.37;55.00;102103.63;10412160;28;20108;-57